EZY39DR EGGW-LIRN
Flight info
| Callsign | EZY39DR |
|---|---|
| Flight time | 1h 58m |
| Altitude | 35000 |
| Route | MATCH Q295 BRAIN P44 DAGGA M85 ITVIP L10 DVR UL9 KONAN DCT KOK DCT RITAX DCT KRH DCT UTABA DCT BEMKI DCT ELMEM DCT GIRIS DCT SUMIR DCT UNUMU DCT EVULI DCT ERIKA |
| Aircraft | A320/M-SDE3FGHIRWY/LB1 |
Departure
| Time | 2026-04-29 19:01 |
|---|---|
| Airport | London Luton Airport (EGGW) |
Arrival
| Time | 2026-04-29 20:59 |
|---|---|
| Airport | Naples International Airport (LIRN) |
| Time | Latitude | Longitude | Altitude | Speed | Heading |
|---|---|---|---|---|---|
| 2026-04-29 18:40 | 51.87958 | -0.37320 | 535 ft | 0 kts | 162° |
| 2026-04-29 18:53 | 51.87980 | -0.37332 | 535 ft | 4 kts | 159° |
| 2026-04-29 18:53 | 51.88002 | -0.37353 | 535 ft | 4 kts | 124° |
| 2026-04-29 18:53 | 51.88007 | -0.37387 | 535 ft | 2 kts | 72° |
| 2026-04-29 18:54 | 51.88007 | -0.37390 | 535 ft | 0 kts | 71° |
| 2026-04-29 18:55 | 51.88007 | -0.37388 | 535 ft | 1 kts | 71° |
| 2026-04-29 18:55 | 51.88012 | -0.37367 | 535 ft | 6 kts | 71° |
| 2026-04-29 18:56 | 51.88036 | -0.37250 | 534 ft | 11 kts | 71° |
| 2026-04-29 18:56 | 51.88048 | -0.37156 | 534 ft | 8 kts | 108° |
| 2026-04-29 18:56 | 51.87989 | -0.37112 | 534 ft | 14 kts | 162° |
| 2026-04-29 18:56 | 51.87868 | -0.37047 | 534 ft | 20 kts | 162° |
| 2026-04-29 18:57 | 51.87736 | -0.36975 | 534 ft | 20 kts | 161° |
| 2026-04-29 18:57 | 51.87643 | -0.36946 | 534 ft | 10 kts | 208° |
| 2026-04-29 18:57 | 51.87620 | -0.37034 | 534 ft | 9 kts | 254° |
| 2026-04-29 18:57 | 51.87604 | -0.37125 | 535 ft | 10 kts | 254° |
| 2026-04-29 18:58 | 51.87580 | -0.37262 | 535 ft | 12 kts | 256° |
| 2026-04-29 18:58 | 51.87587 | -0.37376 | 535 ft | 7 kts | 289° |
| 2026-04-29 18:58 | 51.87550 | -0.37462 | 536 ft | 13 kts | 203° |
| 2026-04-29 18:58 | 51.87501 | -0.37561 | 536 ft | 11 kts | 254° |
| 2026-04-29 18:59 | 51.87482 | -0.37670 | 536 ft | 9 kts | 254° |
| 2026-04-29 18:59 | 51.87465 | -0.37765 | 536 ft | 8 kts | 254° |
| 2026-04-29 18:59 | 51.87450 | -0.37853 | 537 ft | 9 kts | 254° |
| 2026-04-29 18:59 | 51.87430 | -0.37963 | 537 ft | 11 kts | 254° |
| 2026-04-29 19:00 | 51.87377 | -0.38058 | 537 ft | 13 kts | 205° |
| 2026-04-29 19:00 | 51.87303 | -0.38112 | 537 ft | 9 kts | 192° |
| 2026-04-29 19:00 | 51.87254 | -0.38089 | 538 ft | 7 kts | 121° |
| 2026-04-29 19:00 | 51.87300 | -0.37793 | 538 ft | 61 kts | 74° |
| 2026-04-29 19:01 | 51.87472 | -0.36803 | 536 ft | 119 kts | 74° |
| 2026-04-29 19:01 | 51.87716 | -0.35371 | 901 ft | 131 kts | 73° |
| 2026-04-29 19:01 | 51.87944 | -0.33987 | 1724 ft | 120 kts | 76° |
| 2026-04-29 19:01 | 51.88164 | -0.32718 | 2242 ft | 119 kts | 77° |
| 2026-04-29 19:02 | 51.88407 | -0.31295 | 2382 ft | 143 kts | 78° |
| 2026-04-29 19:02 | 51.88598 | -0.30170 | 2408 ft | 167 kts | 78° |
| 2026-04-29 19:02 | 51.89053 | -0.27513 | 2744 ft | 200 kts | 77° |
| 2026-04-29 19:02 | 51.89441 | -0.25223 | 3174 ft | 219 kts | 80° |
| 2026-04-29 19:03 | 51.89452 | -0.22756 | 3828 ft | 226 kts | 106° |
| 2026-04-29 19:03 | 51.88618 | -0.20571 | 4543 ft | 238 kts | 135° |
| 2026-04-29 19:03 | 51.87140 | -0.19239 | 5243 ft | 248 kts | 151° |
| 2026-04-29 19:03 | 51.85589 | -0.18183 | 5941 ft | 252 kts | 152° |
| 2026-04-29 19:04 | 51.84042 | -0.17144 | 6691 ft | 256 kts | 152° |
| 2026-04-29 19:04 | 51.82419 | -0.16025 | 7436 ft | 259 kts | 152° |
| 2026-04-29 19:04 | 51.80758 | -0.14847 | 8309 ft | 262 kts | 153° |
| 2026-04-29 19:04 | 51.79085 | -0.13646 | 9063 ft | 266 kts | 152° |
| 2026-04-29 19:05 | 51.77383 | -0.12395 | 9830 ft | 269 kts | 148° |
| 2026-04-29 19:05 | 51.75986 | -0.10452 | 10501 ft | 268 kts | 122° |
| 2026-04-29 19:05 | 51.75335 | -0.07654 | 11167 ft | 271 kts | 96° |
| 2026-04-29 19:05 | 51.75433 | -0.04547 | 11532 ft | 290 kts | 85° |
| 2026-04-29 19:06 | 51.75692 | -0.01206 | 11669 ft | 313 kts | 85° |
| 2026-04-29 19:06 | 51.76001 | 0.02354 | 12026 ft | 324 kts | 84° |
| 2026-04-29 19:06 | 51.76655 | 0.09670 | 13300 ft | 333 kts | 84° |
| 2026-04-29 19:07 | 51.76975 | 0.13384 | 13974 ft | 336 kts | 84° |
| 2026-04-29 19:07 | 51.77187 | 0.15928 | 14368 ft | 339 kts | 84° |
| 2026-04-29 19:07 | 51.77598 | 0.20950 | 15146 ft | 343 kts | 84° |
| 2026-04-29 19:07 | 51.77905 | 0.24786 | 15751 ft | 345 kts | 84° |
| 2026-04-29 19:08 | 51.78214 | 0.28636 | 16321 ft | 348 kts | 84° |
| 2026-04-29 19:08 | 51.78529 | 0.32527 | 16907 ft | 350 kts | 84° |
| 2026-04-29 19:08 | 51.78847 | 0.36435 | 17492 ft | 353 kts | 84° |
| 2026-04-29 19:08 | 51.79166 | 0.40390 | 18053 ft | 356 kts | 84° |
| 2026-04-29 19:09 | 51.79480 | 0.44364 | 18618 ft | 358 kts | 84° |
| 2026-04-29 19:09 | 51.79795 | 0.48368 | 19111 ft | 361 kts | 84° |
| 2026-04-29 19:09 | 51.80114 | 0.52422 | 19570 ft | 364 kts | 84° |
| 2026-04-29 19:09 | 51.80430 | 0.56442 | 20055 ft | 367 kts | 84° |
| 2026-04-29 19:10 | 51.80747 | 0.60552 | 20533 ft | 370 kts | 84° |
| 2026-04-29 19:10 | 51.81067 | 0.64691 | 20988 ft | 373 kts | 84° |
| 2026-04-29 19:10 | 51.81348 | 0.68874 | 21470 ft | 375 kts | 90° |
| 2026-04-29 19:10 | 51.81050 | 0.73055 | 21924 ft | 377 kts | 106° |
| 2026-04-29 19:11 | 51.79989 | 0.76942 | 22387 ft | 380 kts | 122° |
| 2026-04-29 19:11 | 51.78256 | 0.80156 | 22819 ft | 385 kts | 139° |
| 2026-04-29 19:11 | 51.75955 | 0.82417 | 23299 ft | 390 kts | 156° |
| 2026-04-29 19:11 | 51.73386 | 0.83775 | 23722 ft | 394 kts | 161° |
| 2026-04-29 19:12 | 51.70750 | 0.85060 | 24105 ft | 396 kts | 161° |
| 2026-04-29 19:12 | 51.68098 | 0.86339 | 24489 ft | 398 kts | 161° |
| 2026-04-29 19:12 | 51.65429 | 0.87625 | 24818 ft | 401 kts | 161° |
| 2026-04-29 19:12 | 51.64527 | 0.88061 | 24929 ft | 402 kts | 161° |
| 2026-04-29 19:13 | 51.60052 | 0.90231 | 25545 ft | 404 kts | 161° |
| 2026-04-29 19:13 | 51.57323 | 0.91559 | 25885 ft | 406 kts | 161° |
| 2026-04-29 19:13 | 51.54639 | 0.92860 | 26247 ft | 407 kts | 161° |
| 2026-04-29 19:13 | 51.51929 | 0.94169 | 26566 ft | 409 kts | 161° |
| 2026-04-29 19:14 | 51.49192 | 0.95488 | 26899 ft | 410 kts | 161° |
| 2026-04-29 19:14 | 51.46455 | 0.96808 | 27148 ft | 414 kts | 160° |
| 2026-04-29 19:14 | 51.43690 | 0.98142 | 27452 ft | 416 kts | 160° |
| 2026-04-29 19:14 | 51.40906 | 0.99489 | 27738 ft | 418 kts | 161° |
| 2026-04-29 19:15 | 51.38109 | 1.00835 | 28025 ft | 421 kts | 161° |
| 2026-04-29 19:15 | 51.35298 | 1.02183 | 28346 ft | 422 kts | 160° |
| 2026-04-29 19:15 | 51.32565 | 1.03712 | 28654 ft | 421 kts | 153° |
| 2026-04-29 19:15 | 51.30002 | 1.05969 | 28875 ft | 421 kts | 143° |
| 2026-04-29 19:16 | 51.28465 | 1.07858 | 29043 ft | 421 kts | 137° |
| 2026-04-29 19:16 | 51.25839 | 1.12471 | 29433 ft | 420 kts | 124° |
| 2026-04-29 19:16 | 51.24240 | 1.16377 | 29655 ft | 422 kts | 122° |
| 2026-04-29 19:16 | 51.22643 | 1.20325 | 29908 ft | 423 kts | 122° |
| 2026-04-29 19:17 | 51.21036 | 1.24266 | 30190 ft | 424 kts | 122° |
| 2026-04-29 19:17 | 51.19423 | 1.28201 | 30433 ft | 425 kts | 122° |
| 2026-04-29 19:17 | 51.17873 | 1.32224 | 30651 ft | 426 kts | 116° |
| 2026-04-29 19:17 | 51.16725 | 1.36569 | 30836 ft | 426 kts | 107° |
| 2026-04-29 19:18 | 51.16049 | 1.41168 | 31054 ft | 427 kts | 98° |
| 2026-04-29 19:18 | 51.15860 | 1.44284 | 31237 ft | 427 kts | 95° |
| 2026-04-29 19:18 | 51.15577 | 1.50591 | 31595 ft | 426 kts | 95° |
| 2026-04-29 19:18 | 51.15353 | 1.55297 | 31847 ft | 425 kts | 95° |
| 2026-04-29 19:19 | 51.15122 | 1.59976 | 32131 ft | 424 kts | 95° |
| 2026-04-29 19:19 | 51.14887 | 1.64603 | 32381 ft | 424 kts | 95° |
| 2026-04-29 19:19 | 51.14460 | 1.69239 | 32638 ft | 423 kts | 106° |
| 2026-04-29 19:19 | 51.13411 | 1.73600 | 32895 ft | 422 kts | 112° |
| 2026-04-29 19:20 | 51.12258 | 1.77894 | 33142 ft | 422 kts | 112° |
| 2026-04-29 19:20 | 51.11098 | 1.82171 | 33375 ft | 422 kts | 113° |
| 2026-04-29 19:20 | 51.09931 | 1.86453 | 33647 ft | 421 kts | 113° |
| 2026-04-29 19:20 | 51.08766 | 1.90718 | 33922 ft | 420 kts | 112° |
| 2026-04-29 19:21 | 51.07604 | 1.94980 | 34138 ft | 420 kts | 112° |
| 2026-04-29 19:21 | 51.06835 | 1.97797 | 34297 ft | 420 kts | 112° |
| 2026-04-29 19:21 | 51.05670 | 2.02054 | 34492 ft | 420 kts | 112° |
| 2026-04-29 19:21 | 51.04501 | 2.06318 | 34682 ft | 420 kts | 112° |
| 2026-04-29 19:22 | 51.03332 | 2.10576 | 34873 ft | 420 kts | 112° |
| 2026-04-29 19:22 | 51.02163 | 2.14833 | 35056 ft | 420 kts | 112° |
| 2026-04-29 19:22 | 51.00991 | 2.19093 | 35183 ft | 421 kts | 112° |
| 2026-04-29 19:23 | 50.98650 | 2.27561 | 35225 ft | 417 kts | 112° |
| 2026-04-29 19:23 | 50.96322 | 2.35943 | 35233 ft | 417 kts | 112° |
| 2026-04-29 19:24 | 50.93985 | 2.44356 | 35220 ft | 417 kts | 112° |
| 2026-04-29 19:24 | 50.91641 | 2.52757 | 35226 ft | 417 kts | 112° |
| 2026-04-29 19:25 | 50.89289 | 2.61147 | 35228 ft | 417 kts | 112° |
| 2026-04-29 19:25 | 50.86928 | 2.69528 | 35226 ft | 416 kts | 112° |
| 2026-04-29 19:26 | 50.84559 | 2.77896 | 35227 ft | 416 kts | 112° |
| 2026-04-29 19:26 | 50.82185 | 2.86270 | 35227 ft | 417 kts | 112° |
| 2026-04-29 19:27 | 50.79814 | 2.94629 | 35213 ft | 417 kts | 112° |
| 2026-04-29 19:27 | 50.77432 | 3.02991 | 35216 ft | 417 kts | 112° |
| 2026-04-29 19:28 | 50.75062 | 3.11291 | 35218 ft | 417 kts | 112° |
| 2026-04-29 19:28 | 50.72665 | 3.19628 | 35221 ft | 417 kts | 112° |
| 2026-04-29 19:29 | 50.70261 | 3.27963 | 35225 ft | 417 kts | 112° |
| 2026-04-29 19:29 | 50.67852 | 3.36299 | 35230 ft | 417 kts | 112° |
| 2026-04-29 19:30 | 50.65431 | 3.44636 | 35233 ft | 417 kts | 112° |
| 2026-04-29 19:30 | 50.63007 | 3.52939 | 35219 ft | 418 kts | 112° |
| 2026-04-29 19:31 | 50.60579 | 3.61251 | 35221 ft | 418 kts | 112° |
| 2026-04-29 19:31 | 50.58415 | 3.68653 | 35229 ft | 418 kts | 112° |
| 2026-04-29 19:32 | 50.55971 | 3.76968 | 35228 ft | 419 kts | 112° |
| 2026-04-29 19:32 | 50.53516 | 3.85279 | 35219 ft | 419 kts | 112° |
| 2026-04-29 19:33 | 50.51041 | 3.93603 | 35240 ft | 423 kts | 112° |
| 2026-04-29 19:33 | 50.48523 | 4.02066 | 35238 ft | 432 kts | 112° |
| 2026-04-29 19:34 | 50.45959 | 4.10675 | 35244 ft | 438 kts | 112° |
| 2026-04-29 19:34 | 50.43364 | 4.19335 | 35245 ft | 439 kts | 112° |
| 2026-04-29 19:35 | 50.40764 | 4.27996 | 35251 ft | 439 kts | 112° |
| 2026-04-29 19:35 | 50.38148 | 4.36666 | 35251 ft | 439 kts | 112° |
| 2026-04-29 19:36 | 50.35538 | 4.45294 | 35244 ft | 439 kts | 113° |
| 2026-04-29 19:36 | 50.32906 | 4.53954 | 35255 ft | 439 kts | 113° |
| 2026-04-29 19:37 | 50.30283 | 4.62534 | 35253 ft | 441 kts | 112° |
| 2026-04-29 19:37 | 50.27637 | 4.71196 | 35244 ft | 441 kts | 112° |
| 2026-04-29 19:38 | 50.24993 | 4.79847 | 35244 ft | 441 kts | 112° |
| 2026-04-29 19:38 | 50.22331 | 4.88500 | 35241 ft | 442 kts | 113° |
| 2026-04-29 19:39 | 50.19657 | 4.97134 | 35243 ft | 442 kts | 113° |
| 2026-04-29 19:39 | 50.16969 | 5.05759 | 35265 ft | 442 kts | 112° |
| 2026-04-29 19:40 | 50.14284 | 5.14388 | 35261 ft | 442 kts | 112° |
| 2026-04-29 19:40 | 50.11594 | 5.23012 | 35252 ft | 442 kts | 113° |
| 2026-04-29 19:41 | 50.08891 | 5.31635 | 35259 ft | 442 kts | 113° |
| 2026-04-29 19:41 | 50.06204 | 5.40185 | 35254 ft | 443 kts | 113° |
| 2026-04-29 19:42 | 50.03489 | 5.48787 | 35270 ft | 443 kts | 113° |
| 2026-04-29 19:42 | 50.00766 | 5.57391 | 35256 ft | 443 kts | 113° |
| 2026-04-29 19:43 | 49.98033 | 5.65985 | 35261 ft | 444 kts | 113° |
| 2026-04-29 19:43 | 49.95293 | 5.74579 | 35258 ft | 444 kts | 113° |
| 2026-04-29 19:44 | 49.92542 | 5.83175 | 35268 ft | 445 kts | 113° |
| 2026-04-29 19:44 | 49.89779 | 5.91773 | 35273 ft | 445 kts | 113° |
| 2026-04-29 19:45 | 49.87016 | 6.00350 | 35272 ft | 445 kts | 113° |
| 2026-04-29 19:45 | 49.84249 | 6.08910 | 35267 ft | 445 kts | 113° |
| 2026-04-29 19:46 | 49.81462 | 6.17473 | 35262 ft | 445 kts | 113° |
| 2026-04-29 19:46 | 49.78689 | 6.25974 | 35260 ft | 445 kts | 113° |
| 2026-04-29 19:47 | 49.75894 | 6.34543 | 35257 ft | 446 kts | 113° |
| 2026-04-29 19:47 | 49.73091 | 6.43112 | 35248 ft | 446 kts | 113° |
| 2026-04-29 19:48 | 49.70276 | 6.51670 | 35245 ft | 447 kts | 113° |
| 2026-04-29 19:48 | 49.67446 | 6.60217 | 35239 ft | 447 kts | 113° |
| 2026-04-29 19:49 | 49.64615 | 6.68764 | 35241 ft | 447 kts | 113° |
| 2026-04-29 19:49 | 49.61780 | 6.77321 | 35262 ft | 447 kts | 113° |
| 2026-04-29 19:50 | 49.58938 | 6.85848 | 35261 ft | 447 kts | 113° |
| 2026-04-29 19:50 | 49.56101 | 6.94318 | 35255 ft | 447 kts | 113° |
| 2026-04-29 19:51 | 49.53245 | 7.02815 | 35267 ft | 447 kts | 114° |
| 2026-04-29 19:51 | 49.50378 | 7.11329 | 35246 ft | 448 kts | 114° |
| 2026-04-29 19:52 | 49.47499 | 7.19852 | 35261 ft | 449 kts | 113° |
| 2026-04-29 19:52 | 49.44606 | 7.28396 | 35251 ft | 450 kts | 113° |
| 2026-04-29 19:53 | 49.41703 | 7.36920 | 35253 ft | 450 kts | 114° |
| 2026-04-29 19:53 | 49.38796 | 7.45439 | 35251 ft | 451 kts | 114° |
| 2026-04-29 19:54 | 49.34410 | 7.58222 | 35231 ft | 451 kts | 114° |
| 2026-04-29 19:54 | 49.31496 | 7.66683 | 35252 ft | 452 kts | 114° |
| 2026-04-29 19:55 | 49.28225 | 7.74907 | 35248 ft | 459 kts | 127° |
| 2026-04-29 19:55 | 49.23987 | 7.82265 | 35240 ft | 461 kts | 128° |
| 2026-04-29 19:56 | 49.19701 | 7.89589 | 35246 ft | 462 kts | 128° |
| 2026-04-29 19:56 | 49.15399 | 7.96910 | 35236 ft | 463 kts | 128° |
| 2026-04-29 19:57 | 49.11819 | 8.03006 | 35255 ft | 464 kts | 128° |
| 2026-04-29 19:57 | 49.06779 | 8.11596 | 35244 ft | 464 kts | 128° |
| 2026-04-29 19:58 | 49.02466 | 8.18930 | 35242 ft | 465 kts | 128° |
| 2026-04-29 19:58 | 48.98133 | 8.26266 | 35229 ft | 466 kts | 128° |
| 2026-04-29 19:59 | 48.93808 | 8.33560 | 35226 ft | 467 kts | 128° |
| 2026-04-29 19:59 | 48.89444 | 8.40898 | 35230 ft | 468 kts | 129° |
| 2026-04-29 20:00 | 48.85078 | 8.48221 | 35231 ft | 468 kts | 129° |
| 2026-04-29 20:00 | 48.80707 | 8.55539 | 35233 ft | 468 kts | 129° |
| 2026-04-29 20:01 | 48.76329 | 8.62840 | 35234 ft | 468 kts | 129° |
| 2026-04-29 20:01 | 48.71939 | 8.70144 | 35215 ft | 470 kts | 129° |
| 2026-04-29 20:02 | 48.67552 | 8.77416 | 35243 ft | 471 kts | 129° |
| 2026-04-29 20:02 | 48.64592 | 8.82315 | 35234 ft | 472 kts | 129° |
| 2026-04-29 20:03 | 48.58683 | 8.92063 | 35234 ft | 472 kts | 130° |
| 2026-04-29 20:03 | 48.54232 | 8.99387 | 35239 ft | 472 kts | 129° |
| 2026-04-29 20:04 | 48.49787 | 9.06687 | 35228 ft | 472 kts | 130° |
| 2026-04-29 20:04 | 48.45331 | 9.13976 | 35250 ft | 473 kts | 129° |
| 2026-04-29 20:05 | 48.40888 | 9.21214 | 35240 ft | 473 kts | 129° |
| 2026-04-29 20:05 | 48.36390 | 9.28522 | 35240 ft | 473 kts | 129° |
| 2026-04-29 20:06 | 48.31948 | 9.35734 | 35243 ft | 473 kts | 129° |
| 2026-04-29 20:06 | 48.27465 | 9.42988 | 35244 ft | 474 kts | 129° |
| 2026-04-29 20:07 | 48.22630 | 9.49730 | 35246 ft | 477 kts | 139° |
| 2026-04-29 20:07 | 48.17482 | 9.56057 | 35234 ft | 478 kts | 139° |
| 2026-04-29 20:08 | 48.14036 | 9.60285 | 35230 ft | 479 kts | 139° |
| 2026-04-29 20:08 | 48.08033 | 9.67636 | 35232 ft | 480 kts | 139° |
| 2026-04-29 20:09 | 48.02836 | 9.73988 | 35231 ft | 480 kts | 139° |
| 2026-04-29 20:09 | 47.97687 | 9.80265 | 35247 ft | 481 kts | 139° |
| 2026-04-29 20:10 | 47.92480 | 9.86606 | 35227 ft | 483 kts | 139° |
| 2026-04-29 20:10 | 47.87304 | 9.92894 | 35221 ft | 484 kts | 139° |
| 2026-04-29 20:11 | 47.82076 | 9.99211 | 35223 ft | 484 kts | 140° |
| 2026-04-29 20:11 | 47.76833 | 10.05521 | 35198 ft | 485 kts | 140° |
| 2026-04-29 20:12 | 47.71576 | 10.11846 | 35195 ft | 487 kts | 140° |
| 2026-04-29 20:12 | 47.66305 | 10.18179 | 35209 ft | 488 kts | 140° |
| 2026-04-29 20:13 | 47.61013 | 10.24518 | 35209 ft | 489 kts | 140° |
| 2026-04-29 20:13 | 47.55715 | 10.30749 | 35212 ft | 490 kts | 144° |
| 2026-04-29 20:14 | 47.50025 | 10.36300 | 35186 ft | 491 kts | 147° |
| 2026-04-29 20:14 | 47.44310 | 10.41850 | 35199 ft | 492 kts | 147° |
| 2026-04-29 20:15 | 47.38584 | 10.47404 | 35213 ft | 493 kts | 147° |
| 2026-04-29 20:15 | 47.32843 | 10.52950 | 35220 ft | 493 kts | 147° |
| 2026-04-29 20:16 | 47.26942 | 10.58084 | 35192 ft | 491 kts | 159° |
| 2026-04-29 20:16 | 47.20621 | 10.61957 | 35184 ft | 492 kts | 159° |
| 2026-04-29 20:17 | 47.14288 | 10.65834 | 35198 ft | 493 kts | 159° |
| 2026-04-29 20:17 | 47.07993 | 10.69683 | 35174 ft | 494 kts | 160° |
| 2026-04-29 20:18 | 47.01636 | 10.73575 | 35175 ft | 495 kts | 161° |
| 2026-04-29 20:18 | 46.95246 | 10.77468 | 35172 ft | 499 kts | 161° |
| 2026-04-29 20:19 | 46.88826 | 10.81365 | 35174 ft | 500 kts | 161° |
| 2026-04-29 20:19 | 46.76230 | 10.89281 | 35153 ft | 507 kts | 152° |
| 2026-04-29 20:20 | 46.63167 | 11.01529 | 35145 ft | 510 kts | 151° |
| 2026-04-29 20:20 | 46.49629 | 11.14095 | 35158 ft | 512 kts | 151° |
| 2026-04-29 20:21 | 46.25459 | 11.36061 | 35135 ft | 510 kts | 160° |
| 2026-04-29 20:21 | 46.12177 | 11.42817 | 34869 ft | 505 kts | 166° |
| 2026-04-29 20:21 | 46.05069 | 11.46442 | 35217 ft | 499 kts | 166° |
| 2026-04-29 20:22 | 45.91928 | 11.53024 | 35186 ft | 504 kts | 166° |
| 2026-04-29 20:22 | 45.75022 | 11.61439 | 35180 ft | 501 kts | 166° |
| 2026-04-29 20:23 | 45.48685 | 11.74420 | 35201 ft | 497 kts | 166° |
| 2026-04-29 20:23 | 45.22610 | 11.87142 | 35191 ft | 493 kts | 166° |
| 2026-04-29 20:24 | 44.96723 | 11.99676 | 35170 ft | 490 kts | 166° |
| 2026-04-29 20:24 | 44.70957 | 12.12020 | 35133 ft | 488 kts | 165° |
| 2026-04-29 20:25 | 44.45278 | 12.24202 | 35141 ft | 487 kts | 165° |
| 2026-04-29 20:25 | 44.19640 | 12.36260 | 35145 ft | 485 kts | 165° |
| 2026-04-29 20:26 | 43.94117 | 12.48147 | 35123 ft | 483 kts | 166° |
| 2026-04-29 20:26 | 43.68623 | 12.59918 | 35099 ft | 482 kts | 165° |
| 2026-04-29 20:27 | 43.47497 | 12.69588 | 35091 ft | 481 kts | 165° |
| 2026-04-29 20:27 | 43.18071 | 12.84289 | 35076 ft | 480 kts | 163° |
| 2026-04-29 20:28 | 43.09208 | 12.88737 | 35072 ft | 481 kts | 163° |
| 2026-04-29 20:28 | 43.02932 | 12.91892 | 35083 ft | 481 kts | 163° |
| 2026-04-29 20:29 | 42.96651 | 12.95053 | 35093 ft | 481 kts | 163° |
| 2026-04-29 20:29 | 42.90411 | 12.98190 | 35094 ft | 481 kts | 163° |
| 2026-04-29 20:30 | 42.84132 | 13.01340 | 35087 ft | 481 kts | 163° |
| 2026-04-29 20:30 | 42.62956 | 13.11882 | 35098 ft | 479 kts | 163° |
| 2026-04-29 20:31 | 42.48544 | 13.18997 | 35079 ft | 477 kts | 163° |
| 2026-04-29 20:31 | 42.42314 | 13.22074 | 35072 ft | 477 kts | 164° |
| 2026-04-29 20:32 | 42.36111 | 13.25132 | 35117 ft | 466 kts | 164° |
| 2026-04-29 20:32 | 42.30094 | 13.28100 | 35112 ft | 458 kts | 164° |
| 2026-04-29 20:33 | 42.24148 | 13.31015 | 35100 ft | 457 kts | 164° |
| 2026-04-29 20:33 | 42.18238 | 13.34166 | 34965 ft | 461 kts | 155° |
| 2026-04-29 20:34 | 42.15515 | 13.36472 | 34435 ft | 464 kts | 145° |
| 2026-04-29 20:34 | 42.13087 | 13.39351 | 33840 ft | 465 kts | 139° |
| 2026-04-29 20:34 | 42.10766 | 13.42349 | 33271 ft | 461 kts | 139° |
| 2026-04-29 20:34 | 42.08449 | 13.45308 | 32730 ft | 457 kts | 139° |
| 2026-04-29 20:35 | 42.06136 | 13.48234 | 32180 ft | 454 kts | 139° |
| 2026-04-29 20:35 | 42.03840 | 13.51120 | 31646 ft | 451 kts | 139° |
| 2026-04-29 20:35 | 42.01552 | 13.53987 | 31104 ft | 448 kts | 139° |
| 2026-04-29 20:35 | 41.99279 | 13.56842 | 30583 ft | 446 kts | 139° |
| 2026-04-29 20:36 | 41.97022 | 13.59684 | 30041 ft | 444 kts | 139° |
| 2026-04-29 20:36 | 41.94771 | 13.62519 | 29489 ft | 441 kts | 139° |
| 2026-04-29 20:36 | 41.92545 | 13.65319 | 28981 ft | 436 kts | 139° |
| 2026-04-29 20:36 | 41.90344 | 13.68087 | 28490 ft | 432 kts | 139° |
| 2026-04-29 20:37 | 41.88155 | 13.70838 | 28010 ft | 429 kts | 139° |
| 2026-04-29 20:37 | 41.85985 | 13.73563 | 27540 ft | 425 kts | 139° |
| 2026-04-29 20:37 | 41.83833 | 13.76260 | 27076 ft | 422 kts | 139° |
| 2026-04-29 20:37 | 41.81697 | 13.78931 | 26616 ft | 418 kts | 139° |
| 2026-04-29 20:38 | 41.79579 | 13.81583 | 26179 ft | 415 kts | 139° |
| 2026-04-29 20:38 | 41.77481 | 13.84208 | 25720 ft | 412 kts | 139° |
| 2026-04-29 20:38 | 41.75383 | 13.86826 | 25256 ft | 410 kts | 139° |
| 2026-04-29 20:38 | 41.73303 | 13.89415 | 24786 ft | 409 kts | 139° |
| 2026-04-29 20:39 | 41.70300 | 13.93151 | 24079 ft | 407 kts | 139° |
| 2026-04-29 20:39 | 41.66180 | 13.98269 | 23023 ft | 404 kts | 139° |
| 2026-04-29 20:39 | 41.62092 | 14.03349 | 22070 ft | 395 kts | 138° |
| 2026-04-29 20:39 | 41.58311 | 14.08607 | 21140 ft | 391 kts | 134° |
| 2026-04-29 20:40 | 41.54711 | 14.14016 | 20213 ft | 387 kts | 133° |
| 2026-04-29 20:40 | 41.51127 | 14.19342 | 19290 ft | 384 kts | 134° |
| 2026-04-29 20:40 | 41.49171 | 14.22192 | 18807 ft | 383 kts | 134° |
| 2026-04-29 20:40 | 41.47367 | 14.24793 | 18349 ft | 382 kts | 135° |
| 2026-04-29 20:41 | 41.45560 | 14.27384 | 17862 ft | 380 kts | 135° |
| 2026-04-29 20:41 | 41.43763 | 14.29958 | 17420 ft | 378 kts | 135° |
| 2026-04-29 20:41 | 41.41938 | 14.32457 | 16966 ft | 374 kts | 140° |
| 2026-04-29 20:41 | 41.39975 | 14.34761 | 16380 ft | 376 kts | 141° |
| 2026-04-29 20:42 | 41.38058 | 14.37003 | 16193 ft | 366 kts | 141° |
| 2026-04-29 20:42 | 41.36179 | 14.39201 | 15971 ft | 352 kts | 141° |
| 2026-04-29 20:42 | 41.34367 | 14.41320 | 15642 ft | 343 kts | 141° |
| 2026-04-29 20:42 | 41.32437 | 14.43163 | 15443 ft | 342 kts | 150° |
| 2026-04-29 20:43 | 41.30430 | 14.44837 | 15102 ft | 339 kts | 150° |
| 2026-04-29 20:43 | 41.28425 | 14.46492 | 14780 ft | 338 kts | 151° |
| 2026-04-29 20:43 | 41.26347 | 14.47883 | 14450 ft | 330 kts | 169° |
| 2026-04-29 20:43 | 41.24115 | 14.47953 | 14151 ft | 318 kts | 198° |
| 2026-04-29 20:44 | 41.22226 | 14.46607 | 13815 ft | 306 kts | 228° |
| 2026-04-29 20:44 | 41.20972 | 14.44358 | 13519 ft | 303 kts | 240° |
| 2026-04-29 20:44 | 41.19885 | 14.41952 | 13211 ft | 303 kts | 242° |
| 2026-04-29 20:44 | 41.18834 | 14.39563 | 13024 ft | 295 kts | 238° |
| 2026-04-29 20:45 | 41.17364 | 14.37786 | 12893 ft | 292 kts | 208° |
| 2026-04-29 20:45 | 41.15400 | 14.37313 | 12761 ft | 290 kts | 175° |
| 2026-04-29 20:45 | 41.13501 | 14.38131 | 12561 ft | 289 kts | 155° |
| 2026-04-29 20:45 | 41.11783 | 14.39498 | 12267 ft | 288 kts | 148° |
| 2026-04-29 20:46 | 41.10165 | 14.41073 | 11960 ft | 288 kts | 140° |
| 2026-04-29 20:46 | 41.09043 | 14.43240 | 11638 ft | 287 kts | 108° |
| 2026-04-29 20:46 | 41.08796 | 14.45837 | 11309 ft | 285 kts | 81° |
| 2026-04-29 20:46 | 41.09428 | 14.48274 | 10985 ft | 279 kts | 57° |
| 2026-04-29 20:47 | 41.10434 | 14.50479 | 10696 ft | 279 kts | 56° |
| 2026-04-29 20:47 | 41.11461 | 14.52661 | 10512 ft | 279 kts | 55° |
| 2026-04-29 20:47 | 41.12497 | 14.54835 | 10347 ft | 278 kts | 55° |
| 2026-04-29 20:47 | 41.13521 | 14.56979 | 10176 ft | 271 kts | 55° |
| 2026-04-29 20:48 | 41.14517 | 14.59075 | 9996 ft | 265 kts | 56° |
| 2026-04-29 20:48 | 41.15496 | 14.61157 | 9846 ft | 265 kts | 56° |
| 2026-04-29 20:48 | 41.16447 | 14.63210 | 9708 ft | 264 kts | 56° |
| 2026-04-29 20:48 | 41.17418 | 14.65315 | 9551 ft | 264 kts | 56° |
| 2026-04-29 20:49 | 41.18374 | 14.67386 | 9402 ft | 263 kts | 56° |
| 2026-04-29 20:49 | 41.19318 | 14.69429 | 9250 ft | 263 kts | 58° |
| 2026-04-29 20:49 | 41.19895 | 14.71721 | 9088 ft | 264 kts | 83° |
| 2026-04-29 20:49 | 41.19919 | 14.74132 | 8929 ft | 260 kts | 101° |
| 2026-04-29 20:50 | 41.19146 | 14.76225 | 8752 ft | 254 kts | 139° |
| 2026-04-29 20:50 | 41.17719 | 14.77572 | 8590 ft | 253 kts | 151° |
| 2026-04-29 20:50 | 41.16217 | 14.78791 | 8420 ft | 253 kts | 151° |
| 2026-04-29 20:50 | 41.14653 | 14.79737 | 8253 ft | 243 kts | 174° |
| 2026-04-29 20:51 | 41.13016 | 14.79564 | 8112 ft | 235 kts | 205° |
| 2026-04-29 20:51 | 41.11714 | 14.78351 | 7963 ft | 229 kts | 234° |
| 2026-04-29 20:51 | 41.10854 | 14.76594 | 7792 ft | 227 kts | 240° |
| 2026-04-29 20:51 | 41.10026 | 14.74806 | 7655 ft | 227 kts | 240° |
| 2026-04-29 20:52 | 41.09198 | 14.73029 | 7512 ft | 227 kts | 240° |
| 2026-04-29 20:52 | 41.08353 | 14.71256 | 7377 ft | 226 kts | 239° |
| 2026-04-29 20:52 | 41.07520 | 14.69484 | 7257 ft | 226 kts | 240° |
| 2026-04-29 20:52 | 41.06696 | 14.67717 | 7116 ft | 225 kts | 240° |
| 2026-04-29 20:53 | 41.05876 | 14.65953 | 6953 ft | 225 kts | 240° |
| 2026-04-29 20:53 | 41.05055 | 14.64192 | 6671 ft | 224 kts | 240° |
| 2026-04-29 20:53 | 41.04248 | 14.62460 | 6350 ft | 223 kts | 239° |
| 2026-04-29 20:53 | 41.03431 | 14.60708 | 6025 ft | 223 kts | 239° |
| 2026-04-29 20:54 | 41.01798 | 14.57209 | 5355 ft | 223 kts | 240° |
| 2026-04-29 20:54 | 41.00982 | 14.55461 | 5047 ft | 224 kts | 240° |
| 2026-04-29 20:54 | 41.00161 | 14.53705 | 4716 ft | 225 kts | 240° |
| 2026-04-29 20:55 | 40.99340 | 14.51950 | 4378 ft | 224 kts | 240° |
| 2026-04-29 20:55 | 40.98519 | 14.50194 | 4049 ft | 224 kts | 240° |
| 2026-04-29 20:55 | 40.97698 | 14.48440 | 3721 ft | 224 kts | 239° |
| 2026-04-29 20:55 | 40.96877 | 14.46688 | 3398 ft | 223 kts | 240° |
| 2026-04-29 20:56 | 40.96060 | 14.44946 | 3066 ft | 223 kts | 239° |
| 2026-04-29 20:56 | 40.95244 | 14.43205 | 2745 ft | 222 kts | 239° |
| 2026-04-29 20:56 | 40.94448 | 14.41510 | 2420 ft | 212 kts | 239° |
| 2026-04-29 20:56 | 40.93694 | 14.39905 | 2113 ft | 201 kts | 239° |
| 2026-04-29 20:57 | 40.92990 | 14.38405 | 1859 ft | 183 kts | 239° |
| 2026-04-29 20:57 | 40.92351 | 14.37046 | 1595 ft | 164 kts | 239° |
| 2026-04-29 20:57 | 40.91771 | 14.35813 | 1340 ft | 151 kts | 239° |
| 2026-04-29 20:57 | 40.91230 | 14.34667 | 1127 ft | 143 kts | 239° |
| 2026-04-29 20:58 | 40.90710 | 14.33556 | 890 ft | 142 kts | 239° |
| 2026-04-29 20:58 | 40.90198 | 14.32460 | 643 ft | 139 kts | 239° |
| 2026-04-29 20:58 | 40.89683 | 14.31370 | 454 ft | 140 kts | 238° |
| 2026-04-29 20:58 | 40.89167 | 14.30280 | 281 ft | 140 kts | 238° |
| 2026-04-29 20:59 | 40.88708 | 14.29298 | 258 ft | 105 kts | 238° |
| 2026-04-29 20:59 | 40.88488 | 14.28834 | 279 ft | 71 kts | 238° |
| 2026-04-29 20:59 | 40.88264 | 14.28361 | 296 ft | 35 kts | 238° |
| 2026-04-29 20:59 | 40.88147 | 14.28112 | 303 ft | 29 kts | 238° |
| 2026-04-29 21:00 | 40.88074 | 14.28043 | 309 ft | 8 kts | 163° |
| 2026-04-29 21:00 | 40.88032 | 14.28077 | 308 ft | 7 kts | 148° |
| 2026-04-29 21:00 | 40.87991 | 14.28111 | 307 ft | 7 kts | 148° |
| 2026-04-29 21:00 | 40.87963 | 14.28155 | 306 ft | 7 kts | 102° |
| 2026-04-29 21:01 | 40.87955 | 14.28223 | 305 ft | 8 kts | 99° |
| 2026-04-29 21:01 | 40.87951 | 14.28275 | 303 ft | 9 kts | 96° |
| 2026-04-29 21:01 | 40.87940 | 14.28348 | 303 ft | 2 kts | 139° |
| 2026-04-29 21:01 | 40.87924 | 14.28350 | 302 ft | 1 kts | 170° |
| 2026-04-29 21:02 | 40.87890 | 14.28345 | 303 ft | 6 kts | 190° |
| 2026-04-29 21:02 | 40.87872 | 14.28342 | 303 ft | 0 kts | 188° |